createdAt,value
2018-04-23T00:00:34.112Z,3.60
2018-04-23T00:01:41.297Z,4.30
2018-04-23T00:02:49.763Z,3.28
2018-04-23T00:03:56.067Z,3.40
2018-04-23T00:05:02.300Z,3.33
2018-04-23T00:06:08.526Z,4.45
2018-04-23T00:07:14.754Z,4.03
2018-04-23T00:08:22.002Z,4.72
2018-04-23T00:09:28.271Z,4.28
2018-04-23T00:10:37.172Z,3.65
2018-04-23T00:11:43.463Z,3.47
2018-04-23T00:12:49.688Z,3.78
2018-04-23T00:13:55.974Z,4.03
2018-04-23T00:15:02.707Z,3.70
2018-04-23T00:16:09.019Z,3.72
2018-04-23T00:17:16.678Z,3.10
2018-04-23T00:18:24.311Z,4.43
2018-04-23T00:19:30.603Z,3.50
2018-04-23T00:20:36.920Z,3.83
2018-04-23T00:21:43.112Z,3.30
2018-04-23T00:22:49.858Z,5.05
2018-04-23T00:23:56.041Z,3.45
2018-04-23T00:25:02.261Z,4.45
2018-04-23T00:26:08.210Z,3.80
2018-04-23T00:27:14.470Z,3.87
2018-04-23T00:28:21.455Z,3.55
2018-04-23T00:29:27.676Z,3.67
2018-04-23T00:30:34.483Z,4.45
2018-04-23T00:31:40.751Z,5.82
2018-04-23T00:32:47.407Z,3.90
2018-04-23T00:33:54.988Z,4.68
2018-04-23T00:35:01.396Z,3.62
2018-04-23T00:36:07.639Z,5.18
2018-04-23T00:37:13.850Z,4.37
2018-04-23T00:38:20.097Z,4.62
2018-04-23T00:39:26.358Z,4.68
2018-04-23T00:40:32.559Z,4.43
2018-04-23T00:41:38.798Z,4.28
2018-04-23T00:42:45.635Z,5.03
2018-04-23T00:43:51.876Z,4.93
2018-04-23T00:44:57.841Z,4.65
2018-04-23T00:46:04.142Z,4.90
2018-04-23T00:47:23.686Z,5.62
2018-04-23T00:48:34.379Z,4.75
2018-04-23T00:49:40.626Z,4.47
2018-04-23T00:50:46.887Z,6.32
2018-04-23T00:51:53.078Z,5.50
2018-04-23T00:53:10.232Z,5.25
2018-04-23T00:54:16.304Z,4.70
2018-04-23T00:55:22.567Z,5.65
2018-04-23T00:56:28.835Z,4.55
2018-04-23T00:57:35.530Z,7.65
2018-04-23T00:58:42.484Z,5.20
2018-04-23T00:59:48.753Z,6.32
2018-04-23T01:00:54.629Z,5.53
2018-04-23T01:02:00.870Z,5.35
2018-04-23T01:03:07.872Z,4.85
2018-04-23T01:04:14.123Z,4.70
2018-04-23T01:05:20.379Z,6.40
2018-04-23T01:06:26.318Z,4.60
2018-04-23T01:07:32.655Z,4.60
2018-04-23T01:08:38.957Z,5.82
2018-04-23T01:09:46.058Z,5.55
2018-04-23T01:10:52.389Z,4.55
2018-04-23T01:11:58.133Z,5.53
2018-04-23T01:13:04.388Z,5.22
2018-04-23T01:14:10.431Z,5.20
2018-04-23T01:15:16.460Z,5.18
2018-04-23T01:16:22.730Z,6.28
2018-04-23T01:17:29.024Z,5.70
2018-04-23T01:18:35.262Z,6.90
2018-04-23T01:19:44.274Z,5.57
2018-04-23T01:20:50.715Z,5.50
2018-04-23T01:21:56.918Z,5.22
2018-04-23T01:23:07.240Z,7.40
2018-04-23T01:24:13.438Z,6.57
2018-04-23T01:25:20.176Z,8.70
2018-04-23T01:26:26.395Z,7.82
2018-04-23T01:27:32.545Z,9.65
2018-04-23T01:28:38.823Z,7.55
2018-04-23T01:29:44.776Z,7.20
2018-04-23T01:30:51.759Z,9.30
2018-04-23T01:31:58.023Z,7.75
2018-04-23T01:33:04.298Z,7.40
2018-04-23T01:34:11.193Z,7.43
2018-04-23T01:35:22.488Z,7.47
2018-04-23T01:36:28.830Z,10.43
2018-04-23T01:37:35.420Z,10.00
2018-04-23T01:38:41.676Z,7.25
2018-04-23T01:39:47.911Z,8.38
2018-04-23T01:40:54.258Z,9.10
2018-04-23T01:42:00.438Z,9.18
2018-04-23T01:43:06.401Z,7.93
2018-04-23T01:44:12.704Z,7.62
2018-04-23T01:45:19.230Z,7.70
2018-04-23T01:46:25.391Z,10.18
2018-04-23T01:47:31.747Z,8.00
2018-04-23T01:48:38.519Z,8.38
2018-04-23T01:49:44.726Z,8.38
2018-04-23T01:50:52.142Z,7.97
2018-04-23T01:51:59.207Z,8.43
2018-04-23T01:53:05.435Z,8.55
2018-04-23T01:54:11.675Z,11.95
2018-04-23T01:55:17.961Z,9.98
2018-04-23T01:56:24.187Z,9.70
2018-04-23T01:57:31.412Z,9.20
2018-04-23T01:58:37.711Z,8.25
2018-04-23T01:59:43.926Z,10.38
2018-04-23T02:00:50.155Z,8.98
2018-04-23T02:01:56.415Z,10.18
2018-04-23T02:03:02.415Z,10.00
2018-04-23T02:04:08.357Z,9.70
2018-04-23T02:05:14.674Z,9.88
2018-04-23T02:06:23.073Z,9.38
2018-04-23T02:07:30.441Z,8.77
2018-04-23T02:08:36.708Z,11.00
2018-04-23T02:09:43.628Z,9.07
2018-04-23T02:10:49.899Z,9.80
2018-04-23T02:11:56.127Z,12.05
2018-04-23T02:13:02.387Z,9.27
2018-04-23T02:14:08.660Z,10.40
2018-04-23T02:15:14.553Z,8.95
2018-04-23T02:16:20.884Z,10.50
2018-04-23T02:17:27.806Z,10.60
2018-04-23T02:18:34.416Z,10.05
2018-04-23T02:19:41.813Z,10.13
2018-04-23T02:20:48.094Z,9.73
2018-04-23T02:21:54.347Z,10.25
2018-04-23T02:23:00.580Z,10.90
2018-04-23T02:24:06.915Z,11.82
2018-04-23T02:25:13.669Z,12.85
2018-04-23T02:26:20.937Z,10.07
2018-04-23T02:27:27.219Z,11.75
2018-04-23T02:28:33.551Z,10.13
2018-04-23T02:29:39.800Z,13.15
2018-04-23T02:30:46.072Z,15.57
2018-04-23T02:31:52.287Z,19.08
2018-04-23T02:33:03.342Z,17.40
2018-04-23T02:34:09.655Z,19.83
2018-04-23T02:35:16.535Z,14.13
2018-04-23T02:36:22.770Z,16.37
2018-04-23T02:37:30.847Z,15.23
2018-04-23T02:38:41.117Z,12.37
2018-04-23T02:39:48.301Z,13.85
2018-04-23T02:40:54.682Z,13.10
2018-04-23T02:42:01.001Z,12.00
2018-04-23T02:43:07.282Z,12.73
2018-04-23T02:44:13.517Z,12.43
2018-04-23T02:45:19.816Z,10.15
2018-04-23T02:46:26.122Z,10.75
2018-04-23T02:47:32.447Z,14.30
2018-04-23T02:48:38.637Z,10.88
2018-04-23T02:49:44.969Z,11.88
2018-04-23T02:50:50.903Z,12.75
2018-04-23T02:51:57.170Z,12.68
2018-04-23T02:53:03.476Z,12.80
2018-04-23T02:54:09.989Z,11.70
2018-04-23T02:55:16.176Z,11.50
2018-04-23T02:56:22.425Z,13.40
2018-04-23T02:57:28.606Z,12.57
2018-04-23T02:58:34.818Z,15.80
2018-04-23T02:59:41.160Z,14.77
2018-04-23T03:00:47.448Z,13.27
2018-04-23T03:01:53.689Z,10.80
2018-04-23T03:03:00.007Z,10.98
2018-04-23T03:04:06.283Z,11.10
2018-04-23T03:05:12.523Z,12.43
2018-04-23T03:06:18.800Z,8.85
2018-04-23T03:07:25.074Z,9.85
2018-04-23T03:08:31.828Z,8.85
2018-04-23T03:09:38.183Z,11.00
2018-04-23T03:10:44.450Z,9.95
2018-04-23T03:11:51.417Z,9.30
2018-04-23T03:12:57.697Z,10.57
2018-04-23T03:14:05.178Z,8.63
2018-04-23T03:15:11.687Z,10.20
2018-04-23T03:16:17.723Z,9.35
2018-04-23T03:17:24.272Z,8.65
2018-04-23T03:18:30.250Z,9.00
2018-04-23T03:19:36.631Z,9.30
2018-04-23T03:20:43.114Z,9.30
2018-04-23T03:21:49.302Z,9.38
2018-04-23T03:22:55.511Z,8.52
2018-04-23T03:24:01.715Z,8.65
2018-04-23T03:25:07.941Z,8.45
2018-04-23T03:26:14.092Z,9.63
2018-04-23T03:27:20.564Z,10.80
2018-04-23T03:28:26.770Z,9.38
2018-04-23T03:29:34.307Z,8.63
2018-04-23T03:30:41.520Z,9.07
2018-04-23T03:31:47.771Z,7.53
2018-04-23T03:32:54.058Z,10.10
2018-04-23T03:34:00.278Z,8.57
2018-04-23T03:35:06.491Z,9.23
2018-04-23T03:36:12.794Z,11.07
2018-04-23T03:37:18.982Z,7.97
2018-04-23T03:38:25.206Z,8.57
2018-04-23T03:39:31.431Z,9.25
2018-04-23T03:40:37.646Z,8.30
2018-04-23T03:41:43.685Z,9.18
2018-04-23T03:42:49.724Z,8.35
2018-04-23T03:43:56.747Z,12.02
2018-04-23T03:45:03.697Z,8.23
2018-04-23T03:46:12.933Z,10.00
2018-04-23T03:47:19.288Z,9.50
2018-04-23T03:48:25.528Z,9.38
2018-04-23T03:49:33.717Z,10.95
2018-04-23T03:50:40.707Z,11.40
2018-04-23T03:51:46.972Z,9.75
2018-04-23T03:52:53.411Z,9.00
2018-04-23T03:53:59.634Z,9.30
2018-04-23T03:55:05.983Z,10.68
2018-04-23T03:56:12.423Z,13.82
2018-04-23T03:57:19.191Z,8.82
2018-04-23T03:58:25.401Z,11.35
2018-04-23T03:59:31.716Z,10.15
2018-04-23T04:00:38.150Z,10.18
2018-04-23T04:01:44.465Z,11.10
2018-04-23T04:02:50.726Z,9.95
2018-04-23T04:03:56.989Z,10.27
2018-04-23T04:05:03.288Z,9.32
2018-04-23T04:06:09.539Z,9.35
2018-04-23T04:07:15.540Z,11.10
2018-04-23T04:08:21.790Z,10.80
2018-04-23T04:09:28.002Z,9.18
2018-04-23T04:10:34.209Z,8.85
2018-04-23T04:11:40.095Z,11.57
2018-04-23T04:12:57.178Z,8.57
2018-04-23T04:14:14.200Z,9.00
2018-04-23T04:15:31.346Z,8.38
2018-04-23T04:16:48.420Z,8.02
2018-04-23T04:19:44.917Z,10.68
2018-04-23T04:20:51.212Z,9.95
2018-04-23T04:21:57.550Z,9.73
2018-04-23T04:23:03.780Z,9.82
2018-04-23T04:24:10.514Z,8.68
2018-04-23T04:25:17.638Z,10.35
2018-04-23T04:26:24.741Z,9.02
2018-04-23T04:27:31.406Z,8.52
2018-04-23T04:28:38.262Z,9.60
2018-04-23T04:29:45.247Z,8.55
2018-04-23T04:30:51.621Z,10.70
2018-04-23T04:32:00.399Z,9.15
2018-04-23T04:33:07.367Z,13.57
2018-04-23T04:34:13.664Z,10.13
2018-04-23T04:35:19.871Z,8.85
2018-04-23T04:36:26.157Z,10.43
2018-04-23T04:37:32.650Z,10.25
2018-04-23T04:38:41.508Z,9.95
2018-04-23T04:39:47.676Z,10.20
2018-04-23T04:40:53.935Z,9.20
2018-04-23T04:42:00.338Z,10.65
2018-04-23T04:43:06.310Z,10.20
2018-04-23T04:44:15.224Z,11.23
2018-04-23T04:45:23.796Z,9.32
2018-04-23T04:46:30.083Z,10.45
2018-04-23T04:47:37.620Z,11.12
2018-04-23T04:48:43.783Z,9.75
2018-04-23T04:49:50.037Z,10.07
2018-04-23T04:50:56.369Z,9.60
2018-04-23T04:52:02.657Z,11.55
2018-04-23T04:53:08.838Z,10.98
2018-04-23T04:54:15.071Z,12.57
2018-04-23T04:55:21.880Z,13.38
2018-04-23T04:56:28.156Z,11.90
2018-04-23T04:57:34.667Z,12.05
2018-04-23T04:58:41.791Z,10.95
2018-04-23T04:59:49.634Z,10.38
2018-04-23T05:00:56.453Z,11.18
2018-04-23T05:02:02.742Z,10.82
2018-04-23T05:03:10.480Z,12.18
2018-04-23T05:04:18.209Z,11.15
2018-04-23T05:05:24.471Z,11.45
2018-04-23T05:06:30.739Z,9.98
2018-04-23T05:07:36.964Z,11.35
2018-04-23T05:08:43.243Z,10.45
2018-04-23T05:09:49.478Z,12.48
2018-04-23T05:10:55.692Z,10.77
2018-04-23T05:12:02.005Z,12.02
2018-04-23T05:13:08.184Z,12.27
2018-04-23T05:14:14.422Z,11.95
2018-04-23T05:15:20.633Z,11.50
2018-04-23T05:16:26.977Z,11.82
2018-04-23T05:17:33.258Z,10.85
2018-04-23T05:18:39.698Z,11.90
2018-04-23T05:19:47.122Z,14.55
2018-04-23T05:20:53.391Z,11.50
2018-04-23T05:21:59.634Z,11.45
2018-04-23T05:23:05.942Z,14.98
2018-04-23T05:24:12.236Z,15.63
2018-04-23T05:25:19.181Z,16.67
2018-04-23T05:26:25.515Z,11.98
2018-04-23T05:27:31.812Z,12.48
2018-04-23T05:28:38.095Z,12.57
2018-04-23T05:29:44.435Z,12.23
2018-04-23T05:30:50.740Z,10.93
2018-04-23T05:31:57.083Z,12.65
2018-04-23T05:33:03.386Z,18.45
2018-04-23T05:34:09.680Z,13.55
2018-04-23T05:35:15.995Z,12.77
2018-04-23T05:36:22.449Z,13.10
2018-04-23T05:37:28.914Z,13.02
2018-04-23T05:38:35.371Z,13.15
2018-04-23T05:39:41.626Z,13.68
2018-04-23T05:40:47.836Z,12.85
2018-04-23T05:41:54.347Z,12.80
2018-04-23T05:43:00.579Z,11.65
2018-04-23T05:44:06.908Z,11.77
2018-04-23T05:45:13.209Z,12.15
2018-04-23T05:46:19.535Z,12.18
2018-04-23T05:47:26.485Z,12.25
2018-04-23T05:48:32.422Z,11.35
2018-04-23T05:49:38.648Z,10.38
2018-04-23T05:50:45.195Z,9.98
2018-04-23T05:51:52.037Z,11.05
2018-04-23T05:52:58.341Z,10.38
2018-04-23T05:54:04.583Z,9.00
2018-04-23T05:55:13.086Z,9.90
2018-04-23T05:56:19.310Z,11.70
2018-04-23T05:57:25.627Z,9.90
2018-04-23T05:58:31.871Z,11.70
2018-04-23T05:59:38.166Z,11.48
2018-04-23T06:00:44.733Z,11.38
2018-04-23T06:01:51.078Z,10.77
2018-04-23T06:02:58.366Z,13.00
2018-04-23T06:04:04.226Z,9.82
2018-04-23T06:05:10.523Z,10.38
2018-04-23T06:06:16.930Z,10.65
2018-04-23T06:07:23.795Z,9.38
2018-04-23T06:08:30.071Z,10.48
2018-04-23T06:09:36.974Z,12.05
2018-04-23T06:10:44.117Z,10.48
2018-04-23T06:11:51.669Z,11.10
2018-04-23T06:12:57.956Z,13.62
2018-04-23T06:14:04.235Z,10.65
2018-04-23T06:15:10.486Z,11.90
2018-04-23T06:16:16.793Z,12.40
2018-04-23T06:17:23.052Z,11.77
2018-04-23T06:18:29.340Z,11.75
2018-04-23T06:19:36.553Z,11.12
2018-04-23T06:20:42.838Z,10.88
2018-04-23T06:21:49.070Z,10.27
2018-04-23T06:22:57.199Z,11.30
2018-04-23T06:24:06.940Z,10.48
2018-04-23T06:25:13.225Z,12.18
2018-04-23T06:26:21.720Z,11.77
2018-04-23T06:27:29.544Z,10.95
2018-04-23T06:28:35.838Z,10.93
2018-04-23T06:29:42.282Z,11.77
2018-04-23T06:30:48.338Z,16.17
2018-04-23T06:31:54.698Z,10.05
2018-04-23T06:33:01.034Z,8.90
2018-04-23T06:34:07.309Z,10.18
2018-04-23T06:35:13.621Z,10.48
2018-04-23T06:36:19.940Z,9.60
2018-04-23T06:37:26.855Z,8.80
2018-04-23T06:38:33.143Z,11.02
2018-04-23T06:39:39.550Z,8.45
2018-04-23T06:40:45.763Z,9.32
2018-04-23T06:41:52.863Z,9.40
2018-04-23T06:42:59.863Z,8.43
2018-04-23T06:44:14.187Z,12.40
2018-04-23T06:45:20.359Z,9.25
2018-04-23T06:46:26.675Z,13.27
2018-04-23T06:47:33.392Z,11.63
2018-04-23T06:48:39.696Z,9.38
2018-04-23T06:49:45.979Z,9.73
2018-04-23T06:50:52.189Z,12.40
2018-04-23T06:51:58.445Z,12.60
2018-04-23T06:53:04.751Z,10.00
2018-04-23T06:54:11.046Z,14.15
2018-04-23T06:55:17.329Z,12.15
2018-04-23T06:56:23.331Z,11.88
2018-04-23T06:57:32.014Z,13.45
2018-04-23T06:58:39.100Z,13.55
2018-04-23T06:59:45.131Z,11.73
2018-04-23T07:00:53.759Z,10.98
2018-04-23T07:01:59.786Z,10.73
2018-04-23T07:03:06.077Z,10.20
2018-04-23T07:04:11.997Z,9.68
2018-04-23T07:05:18.256Z,10.60
2018-04-23T07:06:25.437Z,9.25
2018-04-23T07:07:31.870Z,10.05
2018-04-23T07:08:38.101Z,10.43
2018-04-23T07:09:44.306Z,8.77
2018-04-23T07:10:50.510Z,12.10
2018-04-23T07:11:57.377Z,7.87
2018-04-23T07:13:05.114Z,10.00
2018-04-23T07:14:12.603Z,8.82
2018-04-23T07:15:18.825Z,8.88
2018-04-23T07:16:25.061Z,12.55
2018-04-23T07:17:31.090Z,10.38
2018-04-23T07:18:37.399Z,10.52
2018-04-23T07:19:48.448Z,8.50
2018-04-23T07:20:54.970Z,11.02
2018-04-23T07:22:01.453Z,13.62
2018-04-23T07:23:07.545Z,9.23
2018-04-23T07:24:13.815Z,9.35
2018-04-23T07:25:20.042Z,10.75
2018-04-23T07:26:26.242Z,9.52
2018-04-23T07:27:32.488Z,12.20
2018-04-23T07:28:41.582Z,9.95
2018-04-23T07:29:48.747Z,13.82
2018-04-23T07:30:54.994Z,9.80
2018-04-23T07:32:01.183Z,10.57
2018-04-23T07:33:07.413Z,11.12
2018-04-23T07:34:14.374Z,9.55
2018-04-23T07:35:20.743Z,10.77
2018-04-23T07:36:27.820Z,9.63
2018-04-23T07:37:34.841Z,12.50
2018-04-23T07:38:41.127Z,13.18
2018-04-23T07:39:47.422Z,10.25
2018-04-23T07:40:53.637Z,12.13
2018-04-23T07:42:00.026Z,10.70
2018-04-23T07:43:06.304Z,11.05
2018-04-23T07:44:13.341Z,10.38
2018-04-23T07:45:21.042Z,11.27
2018-04-23T07:46:27.498Z,11.80
2018-04-23T07:47:34.314Z,11.48
2018-04-23T07:48:40.160Z,10.75
2018-04-23T07:49:46.388Z,12.32
2018-04-23T07:50:52.575Z,10.77
2018-04-23T07:51:58.819Z,11.88
2018-04-23T07:53:05.214Z,11.15
2018-04-23T07:54:11.465Z,10.95
2018-04-23T07:55:17.742Z,10.18
2018-04-23T07:56:24.008Z,10.95
2018-04-23T07:57:30.256Z,12.63
2018-04-23T07:58:36.483Z,10.80
2018-04-23T07:59:42.819Z,10.98
2018-04-23T08:00:49.089Z,10.30
2018-04-23T08:01:56.270Z,11.02
2018-04-23T08:03:02.566Z,10.45
2018-04-23T08:04:08.882Z,11.12
2018-04-23T08:05:15.136Z,10.80
2018-04-23T08:06:21.365Z,10.38
2018-04-23T08:07:27.622Z,10.15
2018-04-23T08:08:34.495Z,8.60
2018-04-23T08:09:40.734Z,11.25
2018-04-23T08:10:47.028Z,12.50
2018-04-23T08:11:53.334Z,9.80
2018-04-23T08:12:59.655Z,9.18
2018-04-23T08:14:05.462Z,9.50
2018-04-23T08:15:11.850Z,8.95
2018-04-23T08:16:18.145Z,9.88
2018-04-23T08:17:24.628Z,11.12
2018-04-23T08:18:30.837Z,10.10
2018-04-23T08:19:37.108Z,11.40
2018-04-23T08:20:45.965Z,13.27
2018-04-23T08:21:51.795Z,11.90
2018-04-23T08:22:58.127Z,10.60
2018-04-23T08:24:04.092Z,12.10
2018-04-23T08:25:10.302Z,10.85
2018-04-23T08:26:16.524Z,9.65
2018-04-23T08:27:22.793Z,11.85
2018-04-23T08:28:29.083Z,13.45
2018-04-23T08:29:36.433Z,13.27
2018-04-23T08:30:43.412Z,11.18
2018-04-23T08:31:49.614Z,11.32
2018-04-23T08:32:55.959Z,11.32
2018-04-23T08:34:02.271Z,10.70
2018-04-23T08:35:08.547Z,10.65
2018-04-23T08:36:17.743Z,11.45
2018-04-23T08:37:25.894Z,12.50
2018-04-23T08:38:31.916Z,11.05
2018-04-23T08:39:37.881Z,10.90
2018-04-23T08:40:44.107Z,10.90
2018-04-23T08:41:51.044Z,11.30
2018-04-23T08:42:57.381Z,13.80
2018-04-23T08:44:03.785Z,11.23
2018-04-23T08:45:10.055Z,12.27
2018-04-23T08:46:15.945Z,12.25
2018-04-23T08:47:22.189Z,11.18
2018-04-23T08:48:28.532Z,11.30
2018-04-23T08:49:34.807Z,12.43
2018-04-23T08:50:44.097Z,10.75
2018-04-23T08:51:53.351Z,12.20
2018-04-23T08:53:01.484Z,10.90
2018-04-23T08:54:07.759Z,13.00
2018-04-23T08:55:13.155Z,11.45
2018-04-23T08:56:19.420Z,12.20
2018-04-23T08:57:25.649Z,11.88
2018-04-23T08:58:32.220Z,15.25
2018-04-23T08:59:38.472Z,13.23
2018-04-23T09:00:44.792Z,12.50
2018-04-23T09:01:51.356Z,12.77
2018-04-23T09:02:57.622Z,14.50
2018-04-23T09:04:03.954Z,15.38
2018-04-23T09:05:10.267Z,13.02
2018-04-23T09:06:16.545Z,14.98
2018-04-23T09:07:24.630Z,12.93
2018-04-23T09:08:32.218Z,13.90
2018-04-23T09:09:38.468Z,11.30
2018-04-23T09:10:51.428Z,13.18
2018-04-23T09:11:58.243Z,14.45
2018-04-23T09:13:04.578Z,11.23
2018-04-23T09:14:10.904Z,11.40
2018-04-23T09:15:17.173Z,14.60
2018-04-23T09:16:23.470Z,12.05
2018-04-23T09:17:29.711Z,12.40
2018-04-23T09:18:36.032Z,11.30
2018-04-23T09:19:42.334Z,13.45
2018-04-23T09:20:48.584Z,11.57
2018-04-23T09:21:55.906Z,11.23
2018-04-23T09:23:03.319Z,11.30
2018-04-23T09:24:12.277Z,10.60
2018-04-23T09:25:18.590Z,10.80
2018-04-23T09:26:25.804Z,10.85
2018-04-23T09:27:32.027Z,10.13
2018-04-23T09:28:38.346Z,8.93
2018-04-23T09:29:44.638Z,9.65
2018-04-23T09:30:50.879Z,11.80
2018-04-23T09:31:58.295Z,8.77
2018-04-23T09:33:04.613Z,11.45
2018-04-23T09:34:10.905Z,9.65
2018-04-23T09:35:17.162Z,8.68
2018-04-23T09:36:24.014Z,9.68
2018-04-23T09:37:31.407Z,9.73
2018-04-23T09:38:41.836Z,9.13
2018-04-23T09:39:50.932Z,9.70
2018-04-23T09:40:59.495Z,9.25
2018-04-23T09:42:07.554Z,10.07
2018-04-23T09:43:14.885Z,10.07
2018-04-23T09:44:22.378Z,9.60
2018-04-23T09:45:30.062Z,9.85
2018-04-23T09:46:37.731Z,8.82
2018-04-23T09:47:44.836Z,10.02
2018-04-23T09:48:52.031Z,10.80
2018-04-23T09:49:59.726Z,9.05
2018-04-23T09:51:06.928Z,9.93
2018-04-23T09:52:15.099Z,9.70
2018-04-23T09:53:23.052Z,10.23
2018-04-23T09:54:30.793Z,10.48
2018-04-23T09:55:37.711Z,9.73
2018-04-23T09:56:46.077Z,9.35
2018-04-23T09:57:54.274Z,10.52
2018-04-23T09:59:00.390Z,9.23
2018-04-23T10:00:08.080Z,9.88
2018-04-23T10:01:21.994Z,9.38
2018-04-23T10:02:29.138Z,12.00
2018-04-23T10:03:41.433Z,8.40
2018-04-23T10:04:48.770Z,9.32
2018-04-23T10:05:55.832Z,8.95
2018-04-23T10:07:02.846Z,8.27
2018-04-23T10:08:10.044Z,11.35
2018-04-23T10:09:17.004Z,11.12
2018-04-23T10:10:24.185Z,10.77
2018-04-23T10:11:32.043Z,9.77
2018-04-23T10:12:39.240Z,9.70
2018-04-23T10:13:46.384Z,9.48
2018-04-23T10:14:53.209Z,9.63
2018-04-23T10:16:00.889Z,11.05
2018-04-23T10:17:07.346Z,8.88
2018-04-23T10:18:13.925Z,9.60
2018-04-23T10:19:21.150Z,9.37
2018-04-23T10:20:28.307Z,9.90
2018-04-23T10:21:34.547Z,8.63
2018-04-23T10:22:41.744Z,11.40
2018-04-23T10:23:48.827Z,12.43
2018-04-23T10:24:55.177Z,9.25
2018-04-23T10:26:02.742Z,9.05
2018-04-23T10:27:09.137Z,9.48
2018-04-23T10:28:15.342Z,9.63
2018-04-23T10:29:21.666Z,10.52
2018-04-23T10:30:28.650Z,8.95
2018-04-23T10:31:37.974Z,9.68
2018-04-23T10:32:45.519Z,9.15
2018-04-23T10:33:52.951Z,8.93
2018-04-23T10:35:05.456Z,9.68
2018-04-23T10:36:13.818Z,8.55
2018-04-23T10:37:20.365Z,8.60
2018-04-23T10:38:28.351Z,9.00
2018-04-23T10:39:35.090Z,8.82
2018-04-23T10:40:42.612Z,11.77
2018-04-23T10:41:49.722Z,10.50
2018-04-23T10:42:57.148Z,9.55
2018-04-23T10:44:04.249Z,8.85
2018-04-23T10:45:11.087Z,10.93
2018-04-23T10:46:17.968Z,9.10
2018-04-23T10:47:24.660Z,11.55
2018-04-23T10:48:31.283Z,9.02
2018-04-23T10:49:38.615Z,9.05
2018-04-23T10:50:45.526Z,10.90
2018-04-23T10:51:52.570Z,12.52
2018-04-23T10:52:59.635Z,10.65
2018-04-23T10:54:06.934Z,12.82
2018-04-23T10:55:14.370Z,9.85
2018-04-23T10:56:21.432Z,11.65
2018-04-23T10:57:28.945Z,12.48
2018-04-23T10:58:35.559Z,12.20
2018-04-23T10:59:42.020Z,11.20
2018-04-23T11:00:49.372Z,9.75
2018-04-23T11:01:57.832Z,10.18
2018-04-23T11:03:05.207Z,11.50
2018-04-23T11:04:12.170Z,9.98
2018-04-23T11:05:19.262Z,10.38
2018-04-23T11:06:26.199Z,10.65
2018-04-23T11:07:33.113Z,10.25
2018-04-23T11:08:39.734Z,10.07
2018-04-23T11:09:47.591Z,10.55
2018-04-23T11:10:54.607Z,10.13
2018-04-23T11:12:01.226Z,10.93
2018-04-23T11:13:08.852Z,12.13
2018-04-23T11:14:16.314Z,10.10
2018-04-23T11:15:24.606Z,10.05
2018-04-23T11:16:34.534Z,13.25
2018-04-23T11:17:41.790Z,10.23
2018-04-23T11:18:48.962Z,9.85
2018-04-23T11:19:55.223Z,10.82
2018-04-23T11:21:02.056Z,11.15
2018-04-23T11:22:08.803Z,13.35
2018-04-23T11:23:15.029Z,11.95
2018-04-23T11:24:21.242Z,11.43
2018-04-23T11:25:28.498Z,11.20
2018-04-23T11:26:35.875Z,11.18
2018-04-23T11:27:43.920Z,13.38
2018-04-23T11:28:52.627Z,11.60
2018-04-23T11:29:59.442Z,11.25
2018-04-23T11:31:07.195Z,10.95
2018-04-23T11:32:14.395Z,10.07
2018-04-23T11:33:22.451Z,10.90
2018-04-23T11:34:28.935Z,12.27
2018-04-23T11:35:35.302Z,12.18
2018-04-23T11:36:41.554Z,14.98
2018-04-23T11:37:48.186Z,10.80
2018-04-23T11:38:55.641Z,13.35
2018-04-23T11:40:03.994Z,10.82
2018-04-23T11:41:16.684Z,11.63
2018-04-23T11:42:26.026Z,16.33
2018-04-23T11:43:33.648Z,11.32
2018-04-23T11:44:41.704Z,12.65
2018-04-23T11:45:49.667Z,11.73
2018-04-23T11:47:00.157Z,13.25
2018-04-23T11:48:06.601Z,11.60
2018-04-23T11:49:13.211Z,11.95
2018-04-23T11:50:19.859Z,11.05
2018-04-23T11:51:26.148Z,10.55
2018-04-23T11:52:32.406Z,11.20
2018-04-23T11:53:38.667Z,10.25
2018-04-23T11:54:45.136Z,12.13
2018-04-23T11:55:51.694Z,11.45
2018-04-23T11:56:57.923Z,11.27
2018-04-23T11:58:04.313Z,11.60
2018-04-23T11:59:10.971Z,10.80
2018-04-23T12:00:17.570Z,12.93
2018-04-23T12:01:24.008Z,12.80
2018-04-23T12:02:30.425Z,14.30
2018-04-23T12:03:37.217Z,11.80
2018-04-23T12:04:43.635Z,10.40
2018-04-23T12:05:50.354Z,13.62
2018-04-23T12:06:56.744Z,11.73
2018-04-23T12:08:03.495Z,10.73
2018-04-23T12:09:09.889Z,11.40
2018-04-23T12:10:16.319Z,11.90
2018-04-23T12:11:22.695Z,12.35
2018-04-23T12:12:29.143Z,11.77
2018-04-23T12:13:36.496Z,12.02
2018-04-23T12:14:42.894Z,11.80
2018-04-23T12:15:49.194Z,15.23
2018-04-23T12:16:56.431Z,11.05
2018-04-23T12:18:03.765Z,10.88
2018-04-23T12:19:10.807Z,10.50
2018-04-23T12:20:18.115Z,12.05
2018-04-23T12:21:25.066Z,13.02
2018-04-23T12:22:33.908Z,11.05
2018-04-23T12:23:41.767Z,10.80
2018-04-23T12:24:49.195Z,12.48
2018-04-23T12:25:56.857Z,10.50
2018-04-23T12:27:04.533Z,11.00
2018-04-23T12:28:13.217Z,11.52
2018-04-23T12:29:23.197Z,11.27
2018-04-23T12:30:32.241Z,11.75
2018-04-23T12:31:39.970Z,10.80
2018-04-23T12:32:51.281Z,12.15
2018-04-23T12:33:59.073Z,9.82
2018-04-23T12:35:06.181Z,9.82
2018-04-23T12:36:14.278Z,13.48
2018-04-23T12:37:21.785Z,10.65
2018-04-23T12:38:29.298Z,8.77
2018-04-23T12:39:35.590Z,10.73
2018-04-23T12:40:42.123Z,11.10
2018-04-23T12:41:48.511Z,10.52
2018-04-23T12:42:54.830Z,8.82
2018-04-23T12:44:01.014Z,11.65
2018-04-23T12:45:07.223Z,7.43
2018-04-23T12:46:13.504Z,8.35
2018-04-23T12:47:20.081Z,8.48
2018-04-23T12:48:26.363Z,6.43
2018-04-23T12:49:32.657Z,6.80
2018-04-23T12:50:38.894Z,7.55
2018-04-23T12:51:45.121Z,7.15
2018-04-23T12:52:51.419Z,11.15
2018-04-23T12:53:57.734Z,8.63
2018-04-23T12:55:03.705Z,6.87
2018-04-23T12:56:12.389Z,8.23
2018-04-23T12:57:18.566Z,6.50
2018-04-23T12:58:24.819Z,8.20
2018-04-23T12:59:31.487Z,5.70
2018-04-23T13:00:37.851Z,6.12
2018-04-23T13:01:43.881Z,7.87
2018-04-23T13:02:50.172Z,6.30
2018-04-23T13:03:56.362Z,8.48
2018-04-23T13:05:02.686Z,6.12
2018-04-23T13:06:09.028Z,6.03
2018-04-23T13:07:15.990Z,6.53
2018-04-23T13:08:22.579Z,7.65
2018-04-23T13:09:29.366Z,8.05
2018-04-23T13:10:36.404Z,8.68
2018-04-23T13:11:48.671Z,7.18
2018-04-23T13:12:56.452Z,8.45
2018-04-23T13:14:02.976Z,6.90
2018-04-23T13:15:10.219Z,7.60
2018-04-23T13:16:17.154Z,8.93
2018-04-23T13:17:23.335Z,10.20
2018-04-23T13:18:29.765Z,7.60
2018-04-23T13:19:37.166Z,8.57
2018-04-23T13:20:44.217Z,8.38
2018-04-23T13:21:51.373Z,7.50
2018-04-23T13:22:58.682Z,12.95
2018-04-23T13:24:06.711Z,8.10
2018-04-23T13:25:13.251Z,8.07
2018-04-23T13:26:19.651Z,9.50
2018-04-23T13:27:26.517Z,9.35
2018-04-23T13:28:32.755Z,9.15
2018-04-23T13:29:39.112Z,9.15
2018-04-23T13:30:45.355Z,11.57
2018-04-23T13:31:51.611Z,7.65
2018-04-23T13:32:57.885Z,9.18
2018-04-23T13:34:04.095Z,8.40
2018-04-23T13:35:10.407Z,9.65
2018-04-23T13:36:16.647Z,9.45
2018-04-23T13:37:22.959Z,8.68
2018-04-23T13:38:29.301Z,8.95
2018-04-23T13:39:35.322Z,7.60
2018-04-23T13:40:41.568Z,8.13
2018-04-23T13:41:47.890Z,7.85
2018-04-23T13:42:56.854Z,8.98
2018-04-23T13:44:03.852Z,8.00
2018-04-23T13:45:10.078Z,8.32
2018-04-23T13:46:16.303Z,8.73
2018-04-23T13:47:22.267Z,7.35
2018-04-23T13:48:28.516Z,7.68
2018-04-23T13:49:34.865Z,9.00
2018-04-23T13:50:41.140Z,5.72
2018-04-23T13:51:47.460Z,5.90
2018-04-23T13:52:53.718Z,8.65
2018-04-23T13:53:59.948Z,5.80
2018-04-23T13:55:06.196Z,6.22
2018-04-23T13:56:12.895Z,6.28
2018-04-23T13:57:19.316Z,6.30
2018-04-23T13:58:29.181Z,5.85
2018-04-23T13:59:36.803Z,7.55
2018-04-23T14:00:43.795Z,5.40
2018-04-23T14:01:51.020Z,5.40
2018-04-23T14:02:57.204Z,6.22
2018-04-23T14:04:03.417Z,6.78
2018-04-23T14:05:09.631Z,6.47
2018-04-23T14:06:15.862Z,6.55
2018-04-23T14:07:22.183Z,5.90
2018-04-23T14:08:28.503Z,6.18
2018-04-23T14:09:34.787Z,10.45
2018-04-23T14:10:41.097Z,11.85
2018-04-23T14:11:47.424Z,5.97
2018-04-23T14:12:54.058Z,8.95
2018-04-23T14:14:02.692Z,7.60
2018-04-23T14:15:10.940Z,6.32
2018-04-23T14:16:17.182Z,7.25
2018-04-23T14:17:24.369Z,5.87
2018-04-23T14:18:30.699Z,7.80
2018-04-23T14:19:37.006Z,6.00
2018-04-23T14:20:43.206Z,8.02
2018-04-23T14:21:49.443Z,7.90
2018-04-23T14:22:55.722Z,6.40
2018-04-23T14:24:02.014Z,8.75
2018-04-23T14:25:08.717Z,7.68
2018-04-23T14:26:14.624Z,7.10
2018-04-23T14:27:21.636Z,7.80
2018-04-23T14:28:27.846Z,7.90
2018-04-23T14:29:34.858Z,6.28
2018-04-23T14:30:42.235Z,6.53
2018-04-23T14:31:48.495Z,6.40
2018-04-23T14:32:55.319Z,8.52
2018-04-23T14:34:01.720Z,7.68
2018-04-23T14:35:07.719Z,9.82
2018-04-23T14:36:13.950Z,11.60